sensor_id;sensor_type;location;lat;lon;timestamp;P1;durP1;ratioP1;P2;durP2;ratioP2
22070;SDS011;11200;51.488;6.668;2023-05-21T00:00:48;5.38;;;4.88;;
22070;SDS011;11200;51.488;6.668;2023-05-21T00:03:18;5.18;;;4.68;;
22070;SDS011;11200;51.488;6.668;2023-05-21T00:05:43;5.40;;;4.60;;
22070;SDS011;11200;51.488;6.668;2023-05-21T00:08:10;6.20;;;4.95;;
22070;SDS011;11200;51.488;6.668;2023-05-21T00:10:36;5.03;;;4.53;;
22070;SDS011;11200;51.488;6.668;2023-05-21T00:13:02;5.80;;;5.05;;
22070;SDS011;11200;51.488;6.668;2023-05-21T00:15:27;5.72;;;5.10;;
22070;SDS011;11200;51.488;6.668;2023-05-21T00:17:53;5.70;;;5.00;;
22070;SDS011;11200;51.488;6.668;2023-05-21T00:20:18;5.13;;;4.63;;
22070;SDS011;11200;51.488;6.668;2023-05-21T00:22:44;5.63;;;5.00;;
22070;SDS011;11200;51.488;6.668;2023-05-21T00:25:10;5.10;;;4.70;;
22070;SDS011;11200;51.488;6.668;2023-05-21T00:27:36;5.43;;;4.72;;
22070;SDS011;11200;51.488;6.668;2023-05-21T00:30:02;4.97;;;4.47;;
22070;SDS011;11200;51.488;6.668;2023-05-21T00:32:28;5.15;;;4.65;;
22070;SDS011;11200;51.488;6.668;2023-05-21T00:34:54;5.60;;;4.95;;
22070;SDS011;11200;51.488;6.668;2023-05-21T00:37:20;4.85;;;4.45;;
22070;SDS011;11200;51.488;6.668;2023-05-21T00:39:45;5.15;;;4.65;;
22070;SDS011;11200;51.488;6.668;2023-05-21T00:42:11;5.72;;;4.93;;
22070;SDS011;11200;51.488;6.668;2023-05-21T00:44:37;4.70;;;4.30;;
22070;SDS011;11200;51.488;6.668;2023-05-21T00:47:03;5.50;;;5.00;;
22070;SDS011;11200;51.488;6.668;2023-05-21T00:49:30;5.75;;;5.15;;
22070;SDS011;11200;51.488;6.668;2023-05-21T00:51:56;4.90;;;4.40;;
22070;SDS011;11200;51.488;6.668;2023-05-21T00:54:25;5.63;;;5.00;;
22070;SDS011;11200;51.488;6.668;2023-05-21T00:56:51;5.07;;;4.57;;
22070;SDS011;11200;51.488;6.668;2023-05-21T00:59:18;5.57;;;4.97;;
22070;SDS011;11200;51.488;6.668;2023-05-21T01:01:44;6.90;;;4.93;;
22070;SDS011;11200;51.488;6.668;2023-05-21T01:04:10;5.40;;;4.82;;
22070;SDS011;11200;51.488;6.668;2023-05-21T01:06:37;4.90;;;4.40;;
22070;SDS011;11200;51.488;6.668;2023-05-21T01:09:03;5.00;;;4.35;;
22070;SDS011;11200;51.488;6.668;2023-05-21T01:14:04;5.60;;;4.55;;
22070;SDS011;11200;51.488;6.668;2023-05-21T01:16:31;5.20;;;4.70;;
22070;SDS011;11200;51.488;6.668;2023-05-21T01:18:59;5.45;;;4.70;;
22070;SDS011;11200;51.488;6.668;2023-05-21T01:21:27;5.85;;;4.63;;
22070;SDS011;11200;51.488;6.668;2023-05-21T01:23:54;5.25;;;4.75;;
22070;SDS011;11200;51.488;6.668;2023-05-21T01:26:20;5.15;;;4.65;;
22070;SDS011;11200;51.488;6.668;2023-05-21T01:28:46;4.97;;;4.50;;
22070;SDS011;11200;51.488;6.668;2023-05-21T01:31:34;5.15;;;4.45;;
22070;SDS011;11200;51.488;6.668;2023-05-21T01:34:25;4.70;;;4.25;;
22070;SDS011;11200;51.488;6.668;2023-05-21T01:37:03;4.55;;;4.15;;
22070;SDS011;11200;51.488;6.668;2023-05-21T01:39:38;6.90;;;4.78;;
22070;SDS011;11200;51.488;6.668;2023-05-21T01:42:09;5.43;;;4.32;;
22070;SDS011;11200;51.488;6.668;2023-05-21T01:44:36;5.03;;;4.53;;
22070;SDS011;11200;51.488;6.668;2023-05-21T01:47:02;4.65;;;4.20;;
22070;SDS011;11200;51.488;6.668;2023-05-21T01:49:29;5.85;;;4.43;;
22070;SDS011;11200;51.488;6.668;2023-05-21T01:51:55;4.80;;;4.30;;
22070;SDS011;11200;51.488;6.668;2023-05-21T01:54:21;4.63;;;4.03;;
22070;SDS011;11200;51.488;6.668;2023-05-21T01:56:47;5.18;;;4.03;;
22070;SDS011;11200;51.488;6.668;2023-05-21T01:59:13;5.60;;;5.03;;
22070;SDS011;11200;51.488;6.668;2023-05-21T02:01:41;4.70;;;4.30;;
22070;SDS011;11200;51.488;6.668;2023-05-21T02:04:07;4.47;;;4.07;;
22070;SDS011;11200;51.488;6.668;2023-05-21T02:06:32;4.40;;;4.00;;
22070;SDS011;11200;51.488;6.668;2023-05-21T02:08:59;4.35;;;3.95;;
22070;SDS011;11200;51.488;6.668;2023-05-21T02:11:26;5.22;;;4.25;;
22070;SDS011;11200;51.488;6.668;2023-05-21T02:13:52;4.57;;;4.07;;
22070;SDS011;11200;51.488;6.668;2023-05-21T02:16:18;4.43;;;4.00;;
22070;SDS011;11200;51.488;6.668;2023-05-21T02:18:46;4.80;;;4.30;;
22070;SDS011;11200;51.488;6.668;2023-05-21T02:21:15;4.65;;;3.90;;
22070;SDS011;11200;51.488;6.668;2023-05-21T02:23:41;4.60;;;3.97;;
22070;SDS011;11200;51.488;6.668;2023-05-21T02:26:06;4.57;;;4.10;;
22070;SDS011;11200;51.488;6.668;2023-05-21T02:28:32;4.53;;;4.13;;
22070;SDS011;11200;51.488;6.668;2023-05-21T02:30:58;4.82;;;3.85;;
22070;SDS011;11200;51.488;6.668;2023-05-21T02:33:25;4.40;;;3.92;;
22070;SDS011;11200;51.488;6.668;2023-05-21T02:35:51;4.38;;;3.97;;
22070;SDS011;11200;51.488;6.668;2023-05-21T02:38:16;4.53;;;4.10;;
22070;SDS011;11200;51.488;6.668;2023-05-21T02:40:44;4.82;;;4.25;;
22070;SDS011;11200;51.488;6.668;2023-05-21T02:43:10;4.85;;;3.80;;
22070;SDS011;11200;51.488;6.668;2023-05-21T02:45:36;4.32;;;3.92;;
22070;SDS011;11200;51.488;6.668;2023-05-21T02:48:01;4.43;;;3.78;;
22070;SDS011;11200;51.488;6.668;2023-05-21T02:50:27;4.85;;;3.90;;
22070;SDS011;11200;51.488;6.668;2023-05-21T02:52:52;4.20;;;3.80;;
22070;SDS011;11200;51.488;6.668;2023-05-21T02:55:18;4.20;;;3.80;;
22070;SDS011;11200;51.488;6.668;2023-05-21T02:57:44;4.25;;;3.85;;
22070;SDS011;11200;51.488;6.668;2023-05-21T03:00:09;5.05;;;3.78;;
22070;SDS011;11200;51.488;6.668;2023-05-21T03:02:37;4.40;;;4.00;;
22070;SDS011;11200;51.488;6.668;2023-05-21T03:05:03;4.35;;;3.75;;
22070;SDS011;11200;51.488;6.668;2023-05-21T03:07:29;3.45;;;3.15;;
22070;SDS011;11200;51.488;6.668;2023-05-21T03:09:55;4.38;;;3.78;;
22070;SDS011;11200;51.488;6.668;2023-05-21T03:12:21;4.82;;;3.80;;
22070;SDS011;11200;51.488;6.668;2023-05-21T03:14:47;5.32;;;4.07;;
22070;SDS011;11200;51.488;6.668;2023-05-21T03:17:15;5.63;;;3.60;;
22070;SDS011;11200;51.488;6.668;2023-05-21T03:19:41;4.05;;;3.55;;
22070;SDS011;11200;51.488;6.668;2023-05-21T03:22:08;4.40;;;4.00;;
22070;SDS011;11200;51.488;6.668;2023-05-21T03:24:35;4.07;;;3.67;;
22070;SDS011;11200;51.488;6.668;2023-05-21T03:27:02;4.25;;;3.58;;
22070;SDS011;11200;51.488;6.668;2023-05-21T03:29:30;4.90;;;3.55;;
22070;SDS011;11200;51.488;6.668;2023-05-21T03:31:56;5.07;;;3.67;;
22070;SDS011;11200;51.488;6.668;2023-05-21T03:34:21;4.38;;;3.97;;
22070;SDS011;11200;51.488;6.668;2023-05-21T03:36:48;4.78;;;4.18;;
22070;SDS011;11200;51.488;6.668;2023-05-21T03:39:13;3.88;;;3.47;;
22070;SDS011;11200;51.488;6.668;2023-05-21T03:41:39;4.10;;;3.70;;
22070;SDS011;11200;51.488;6.668;2023-05-21T03:44:05;4.18;;;3.78;;
22070;SDS011;11200;51.488;6.668;2023-05-21T03:46:31;4.05;;;3.58;;
22070;SDS011;11200;51.488;6.668;2023-05-21T03:48:57;3.80;;;3.50;;
22070;SDS011;11200;51.488;6.668;2023-05-21T03:51:23;4.10;;;3.70;;
22070;SDS011;11200;51.488;6.668;2023-05-21T03:53:49;3.80;;;3.40;;
22070;SDS011;11200;51.488;6.668;2023-05-21T03:56:15;3.75;;;3.42;;
22070;SDS011;11200;51.488;6.668;2023-05-21T03:58:41;3.67;;;3.20;;
22070;SDS011;11200;51.488;6.668;2023-05-21T04:01:06;3.92;;;3.53;;
22070;SDS011;11200;51.488;6.668;2023-05-21T04:03:33;3.85;;;3.25;;
22070;SDS011;11200;51.488;6.668;2023-05-21T04:05:59;3.85;;;3.45;;
22070;SDS011;11200;51.488;6.668;2023-05-21T04:08:25;4.35;;;3.58;;
22070;SDS011;11200;51.488;6.668;2023-05-21T04:10:51;5.00;;;3.83;;
22070;SDS011;11200;51.488;6.668;2023-05-21T04:13:16;4.35;;;3.70;;
22070;SDS011;11200;51.488;6.668;2023-05-21T04:15:42;4.03;;;3.63;;
22070;SDS011;11200;51.488;6.668;2023-05-21T04:18:10;3.58;;;3.28;;
22070;SDS011;11200;51.488;6.668;2023-05-21T04:20:37;3.85;;;3.45;;
22070;SDS011;11200;51.488;6.668;2023-05-21T04:23:03;3.80;;;3.40;;
22070;SDS011;11200;51.488;6.668;2023-05-21T04:25:30;4.03;;;3.65;;
22070;SDS011;11200;51.488;6.668;2023-05-21T04:27:55;4.45;;;3.40;;
22070;SDS011;11200;51.488;6.668;2023-05-21T04:30:21;4.00;;;3.60;;
22070;SDS011;11200;51.488;6.668;2023-05-21T04:32:48;4.40;;;3.50;;
22070;SDS011;11200;51.488;6.668;2023-05-21T04:35:13;3.65;;;3.35;;
22070;SDS011;11200;51.488;6.668;2023-05-21T04:37:39;4.55;;;3.42;;
22070;SDS011;11200;51.488;6.668;2023-05-21T04:40:08;3.40;;;3.10;;
22070;SDS011;11200;51.488;6.668;2023-05-21T04:42:34;5.22;;;3.40;;
22070;SDS011;11200;51.488;6.668;2023-05-21T04:45:00;3.97;;;3.58;;
22070;SDS011;11200;51.488;6.668;2023-05-21T04:47:26;3.83;;;3.42;;
22070;SDS011;11200;51.488;6.668;2023-05-21T04:49:54;3.70;;;3.40;;
22070;SDS011;11200;51.488;6.668;2023-05-21T04:52:20;3.58;;;3.28;;
22070;SDS011;11200;51.488;6.668;2023-05-21T04:54:45;4.55;;;3.65;;
22070;SDS011;11200;51.488;6.668;2023-05-21T04:57:12;4.55;;;3.58;;
22070;SDS011;11200;51.488;6.668;2023-05-21T04:59:37;3.42;;;3.13;;
22070;SDS011;11200;51.488;6.668;2023-05-21T05:02:04;3.60;;;3.30;;
22070;SDS011;11200;51.488;6.668;2023-05-21T05:04:30;4.60;;;3.53;;
22070;SDS011;11200;51.488;6.668;2023-05-21T05:06:56;3.13;;;2.92;;
22070;SDS011;11200;51.488;6.668;2023-05-21T05:09:21;4.07;;;3.67;;
22070;SDS011;11200;51.488;6.668;2023-05-21T05:11:49;4.05;;;3.67;;
22070;SDS011;11200;51.488;6.668;2023-05-21T05:14:15;4.20;;;3.80;;
22070;SDS011;11200;51.488;6.668;2023-05-21T05:16:40;3.92;;;3.60;;
22070;SDS011;11200;51.488;6.668;2023-05-21T05:19:06;3.60;;;3.10;;
22070;SDS011;11200;51.488;6.668;2023-05-21T05:21:32;4.13;;;3.58;;
22070;SDS011;11200;51.488;6.668;2023-05-21T05:23:59;3.47;;;3.17;;
22070;SDS011;11200;51.488;6.668;2023-05-21T05:26:25;3.85;;;3.45;;
22070;SDS011;11200;51.488;6.668;2023-05-21T05:28:50;3.92;;;3.40;;
22070;SDS011;11200;51.488;6.668;2023-05-21T05:31:16;3.80;;;3.40;;
22070;SDS011;11200;51.488;6.668;2023-05-21T05:33:42;3.72;;;3.38;;
22070;SDS011;11200;51.488;6.668;2023-05-21T05:36:07;3.50;;;3.20;;
22070;SDS011;11200;51.488;6.668;2023-05-21T05:38:33;3.80;;;3.00;;
22070;SDS011;11200;51.488;6.668;2023-05-21T05:40:59;3.70;;;3.38;;
22070;SDS011;11200;51.488;6.668;2023-05-21T05:43:25;4.30;;;3.47;;
22070;SDS011;11200;51.488;6.668;2023-05-21T05:45:51;4.07;;;3.58;;
22070;SDS011;11200;51.488;6.668;2023-05-21T05:48:18;3.70;;;3.40;;
22070;SDS011;11200;51.488;6.668;2023-05-21T05:50:44;3.50;;;3.20;;
22070;SDS011;11200;51.488;6.668;2023-05-21T05:53:13;4.20;;;3.80;;
22070;SDS011;11200;51.488;6.668;2023-05-21T05:55:40;4.95;;;3.88;;
22070;SDS011;11200;51.488;6.668;2023-05-21T05:58:07;3.60;;;3.20;;
22070;SDS011;11200;51.488;6.668;2023-05-21T06:00:33;3.83;;;3.42;;
22070;SDS011;11200;51.488;6.668;2023-05-21T06:02:59;3.63;;;3.08;;
22070;SDS011;11200;51.488;6.668;2023-05-21T06:05:24;3.70;;;3.40;;
22070;SDS011;11200;51.488;6.668;2023-05-21T06:07:50;4.85;;;3.90;;
22070;SDS011;11200;51.488;6.668;2023-05-21T06:10:16;4.82;;;3.65;;
22070;SDS011;11200;51.488;6.668;2023-05-21T06:12:42;4.07;;;3.70;;
22070;SDS011;11200;51.488;6.668;2023-05-21T06:15:08;4.18;;;3.78;;
